sensor_id;sensor_type;location;lat;lon;timestamp;temperature;humidity
22779;DHT22;11556;51.194;3.800;2023-08-20T00:01:27;20.50;99.90
22779;DHT22;11556;51.194;3.800;2023-08-20T00:03:54;20.50;99.90
22779;DHT22;11556;51.194;3.800;2023-08-20T00:06:20;20.60;99.90
22779;DHT22;11556;51.194;3.800;2023-08-20T00:08:46;20.60;99.90
22779;DHT22;11556;51.194;3.800;2023-08-20T00:11:12;20.60;99.90
22779;DHT22;11556;51.194;3.800;2023-08-20T00:13:38;20.60;99.90
22779;DHT22;11556;51.194;3.800;2023-08-20T00:16:04;20.60;99.90
22779;DHT22;11556;51.194;3.800;2023-08-20T00:18:31;20.50;99.90
22779;DHT22;11556;51.194;3.800;2023-08-20T00:20:57;20.50;99.90
22779;DHT22;11556;51.194;3.800;2023-08-20T00:23:23;20.50;99.90
22779;DHT22;11556;51.194;3.800;2023-08-20T00:25:49;20.40;99.90
22779;DHT22;11556;51.194;3.800;2023-08-20T00:28:15;20.40;99.90
22779;DHT22;11556;51.194;3.800;2023-08-20T00:30:41;20.40;99.90
22779;DHT22;11556;51.194;3.800;2023-08-20T00:33:06;20.30;99.90
22779;DHT22;11556;51.194;3.800;2023-08-20T00:35:32;20.30;99.90
22779;DHT22;11556;51.194;3.800;2023-08-20T00:37:58;20.20;99.90
22779;DHT22;11556;51.194;3.800;2023-08-20T00:40:24;20.20;99.90
22779;DHT22;11556;51.194;3.800;2023-08-20T00:42:49;20.20;99.90
22779;DHT22;11556;51.194;3.800;2023-08-20T00:45:15;20.30;99.90
22779;DHT22;11556;51.194;3.800;2023-08-20T00:47:44;20.40;99.90
22779;DHT22;11556;51.194;3.800;2023-08-20T00:50:11;20.40;99.90
22779;DHT22;11556;51.194;3.800;2023-08-20T00:52:37;20.50;99.90
22779;DHT22;11556;51.194;3.800;2023-08-20T00:55:11;20.60;99.90
22779;DHT22;11556;51.194;3.800;2023-08-20T00:57:39;20.70;99.90
22779;DHT22;11556;51.194;3.800;2023-08-20T01:00:06;20.80;99.90
22779;DHT22;11556;51.194;3.800;2023-08-20T01:02:35;20.70;99.90
22779;DHT22;11556;51.194;3.800;2023-08-20T01:05:02;20.70;99.90
22779;DHT22;11556;51.194;3.800;2023-08-20T01:10:49;20.70;99.90
22779;DHT22;11556;51.194;3.800;2023-08-20T01:13:18;20.60;99.90
22779;DHT22;11556;51.194;3.800;2023-08-20T01:15:44;20.60;99.90
22779;DHT22;11556;51.194;3.800;2023-08-20T01:18:10;20.60;99.90
22779;DHT22;11556;51.194;3.800;2023-08-20T01:20:41;20.60;99.90
22779;DHT22;11556;51.194;3.800;2023-08-20T01:28:51;20.70;99.90
22779;DHT22;11556;51.194;3.800;2023-08-20T01:31:17;20.70;99.90
22779;DHT22;11556;51.194;3.800;2023-08-20T01:33:44;20.70;99.90
22779;DHT22;11556;51.194;3.800;2023-08-20T01:36:09;20.60;99.90
22779;DHT22;11556;51.194;3.800;2023-08-20T01:38:36;20.40;99.90
22779;DHT22;11556;51.194;3.800;2023-08-20T01:41:02;20.40;99.90
22779;DHT22;11556;51.194;3.800;2023-08-20T01:43:28;20.20;99.90
22779;DHT22;11556;51.194;3.800;2023-08-20T01:45:54;20.10;99.90
22779;DHT22;11556;51.194;3.800;2023-08-20T01:48:19;20.00;99.90
22779;DHT22;11556;51.194;3.800;2023-08-20T01:50:45;20.00;99.90
22779;DHT22;11556;51.194;3.800;2023-08-20T01:53:11;19.90;99.90
22779;DHT22;11556;51.194;3.800;2023-08-20T01:55:37;19.80;99.90
22779;DHT22;11556;51.194;3.800;2023-08-20T01:58:03;19.80;99.90
22779;DHT22;11556;51.194;3.800;2023-08-20T02:00:29;19.70;99.90
22779;DHT22;11556;51.194;3.800;2023-08-20T02:02:56;19.70;99.90
22779;DHT22;11556;51.194;3.800;2023-08-20T02:05:21;19.70;99.90
22779;DHT22;11556;51.194;3.800;2023-08-20T02:07:47;19.60;99.90
22779;DHT22;11556;51.194;3.800;2023-08-20T02:10:13;19.60;99.90
22779;DHT22;11556;51.194;3.800;2023-08-20T02:12:40;19.60;99.90
22779;DHT22;11556;51.194;3.800;2023-08-20T02:15:06;19.70;99.90
22779;DHT22;11556;51.194;3.800;2023-08-20T02:17:32;19.60;99.90
22779;DHT22;11556;51.194;3.800;2023-08-20T02:19:58;19.60;99.90
22779;DHT22;11556;51.194;3.800;2023-08-20T02:22:23;19.60;99.90
22779;DHT22;11556;51.194;3.800;2023-08-20T02:24:49;19.70;99.90
22779;DHT22;11556;51.194;3.800;2023-08-20T02:27:15;19.70;99.90
22779;DHT22;11556;51.194;3.800;2023-08-20T02:29:41;19.70;99.90
22779;DHT22;11556;51.194;3.800;2023-08-20T02:32:06;19.70;99.90
22779;DHT22;11556;51.194;3.800;2023-08-20T02:34:32;19.70;99.90
22779;DHT22;11556;51.194;3.800;2023-08-20T02:36:57;19.70;99.90
22779;DHT22;11556;51.194;3.800;2023-08-20T02:39:23;19.70;99.90
22779;DHT22;11556;51.194;3.800;2023-08-20T02:41:50;19.70;99.90
22779;DHT22;11556;51.194;3.800;2023-08-20T02:44:15;19.50;99.90
22779;DHT22;11556;51.194;3.800;2023-08-20T02:46:41;19.50;99.90
22779;DHT22;11556;51.194;3.800;2023-08-20T02:49:10;19.50;99.90
22779;DHT22;11556;51.194;3.800;2023-08-20T02:51:35;19.40;99.90
22779;DHT22;11556;51.194;3.800;2023-08-20T02:54:01;19.40;99.90
22779;DHT22;11556;51.194;3.800;2023-08-20T02:56:27;19.40;99.90
22779;DHT22;11556;51.194;3.800;2023-08-20T02:58:53;19.30;99.90
22779;DHT22;11556;51.194;3.800;2023-08-20T03:01:21;19.30;99.90
22779;DHT22;11556;51.194;3.800;2023-08-20T03:03:47;19.30;99.90
22779;DHT22;11556;51.194;3.800;2023-08-20T03:06:13;19.30;99.90
22779;DHT22;11556;51.194;3.800;2023-08-20T03:08:39;19.30;99.90
22779;DHT22;11556;51.194;3.800;2023-08-20T03:11:04;19.30;99.90
22779;DHT22;11556;51.194;3.800;2023-08-20T03:13:30;19.30;99.90
22779;DHT22;11556;51.194;3.800;2023-08-20T03:15:56;19.30;99.90
22779;DHT22;11556;51.194;3.800;2023-08-20T03:18:21;19.30;99.90
22779;DHT22;11556;51.194;3.800;2023-08-20T03:20:47;19.20;99.90
22779;DHT22;11556;51.194;3.800;2023-08-20T03:23:13;19.20;99.90
22779;DHT22;11556;51.194;3.800;2023-08-20T03:25:38;19.10;99.90
22779;DHT22;11556;51.194;3.800;2023-08-20T03:28:04;19.20;99.90
22779;DHT22;11556;51.194;3.800;2023-08-20T03:30:30;19.20;99.90
22779;DHT22;11556;51.194;3.800;2023-08-20T03:32:57;19.20;99.90
22779;DHT22;11556;51.194;3.800;2023-08-20T03:35:22;19.20;99.90
22779;DHT22;11556;51.194;3.800;2023-08-20T03:37:48;19.10;99.90
22779;DHT22;11556;51.194;3.800;2023-08-20T03:40:14;19.10;99.90
22779;DHT22;11556;51.194;3.800;2023-08-20T03:42:40;19.10;99.90
22779;DHT22;11556;51.194;3.800;2023-08-20T03:45:06;19.00;99.90
22779;DHT22;11556;51.194;3.800;2023-08-20T03:47:31;18.90;99.90
22779;DHT22;11556;51.194;3.800;2023-08-20T03:49:57;18.90;99.90
22779;DHT22;11556;51.194;3.800;2023-08-20T03:52:23;18.80;99.90
22779;DHT22;11556;51.194;3.800;2023-08-20T03:54:48;18.70;99.90
22779;DHT22;11556;51.194;3.800;2023-08-20T03:57:15;18.60;99.90
22779;DHT22;11556;51.194;3.800;2023-08-20T03:59:41;18.50;99.90
22779;DHT22;11556;51.194;3.800;2023-08-20T04:02:06;18.60;99.90
22779;DHT22;11556;51.194;3.800;2023-08-20T04:04:32;18.50;99.90
22779;DHT22;11556;51.194;3.800;2023-08-20T04:06:58;18.50;99.90
22779;DHT22;11556;51.194;3.800;2023-08-20T04:09:24;18.50;99.90
22779;DHT22;11556;51.194;3.800;2023-08-20T04:11:49;18.40;99.90
22779;DHT22;11556;51.194;3.800;2023-08-20T04:14:15;18.40;99.90
22779;DHT22;11556;51.194;3.800;2023-08-20T04:16:41;18.40;99.90
22779;DHT22;11556;51.194;3.800;2023-08-20T04:19:07;18.30;99.90
22779;DHT22;11556;51.194;3.800;2023-08-20T04:21:32;18.30;99.90
22779;DHT22;11556;51.194;3.800;2023-08-20T04:23:58;18.20;99.90
22779;DHT22;11556;51.194;3.800;2023-08-20T04:26:24;18.20;99.90
22779;DHT22;11556;51.194;3.800;2023-08-20T04:28:50;18.10;99.90
22779;DHT22;11556;51.194;3.800;2023-08-20T04:31:15;18.10;99.90
22779;DHT22;11556;51.194;3.800;2023-08-20T04:33:41;18.20;99.90
22779;DHT22;11556;51.194;3.800;2023-08-20T04:36:07;18.20;99.90
22779;DHT22;11556;51.194;3.800;2023-08-20T04:38:33;18.20;99.90
22779;DHT22;11556;51.194;3.800;2023-08-20T04:40:58;18.10;99.90
22779;DHT22;11556;51.194;3.800;2023-08-20T04:43:24;18.10;99.90
22779;DHT22;11556;51.194;3.800;2023-08-20T04:45:50;18.00;99.90
22779;DHT22;11556;51.194;3.800;2023-08-20T04:48:15;17.90;99.90
22779;DHT22;11556;51.194;3.800;2023-08-20T04:50:41;18.00;99.90
22779;DHT22;11556;51.194;3.800;2023-08-20T04:53:06;17.90;99.90
22779;DHT22;11556;51.194;3.800;2023-08-20T04:55:32;17.90;99.90
22779;DHT22;11556;51.194;3.800;2023-08-20T04:57:58;18.00;99.90
22779;DHT22;11556;51.194;3.800;2023-08-20T05:00:23;18.00;99.90
22779;DHT22;11556;51.194;3.800;2023-08-20T05:02:50;18.00;99.90
22779;DHT22;11556;51.194;3.800;2023-08-20T05:05:15;18.10;99.90
22779;DHT22;11556;51.194;3.800;2023-08-20T05:07:41;18.20;99.90
22779;DHT22;11556;51.194;3.800;2023-08-20T05:10:07;18.20;99.90
22779;DHT22;11556;51.194;3.800;2023-08-20T05:12:34;18.40;99.90
22779;DHT22;11556;51.194;3.800;2023-08-20T05:14:59;18.40;99.90
22779;DHT22;11556;51.194;3.800;2023-08-20T05:17:25;18.50;99.90
22779;DHT22;11556;51.194;3.800;2023-08-20T05:19:51;18.70;99.90
22779;DHT22;11556;51.194;3.800;2023-08-20T05:22:16;18.90;99.90
22779;DHT22;11556;51.194;3.800;2023-08-20T05:24:42;18.90;99.90
22779;DHT22;11556;51.194;3.800;2023-08-20T05:27:09;19.00;99.90
22779;DHT22;11556;51.194;3.800;2023-08-20T05:29:36;19.10;99.90
22779;DHT22;11556;51.194;3.800;2023-08-20T05:32:02;19.10;99.90
22779;DHT22;11556;51.194;3.800;2023-08-20T05:34:28;19.20;99.90
22779;DHT22;11556;51.194;3.800;2023-08-20T05:36:54;19.30;99.90
22779;DHT22;11556;51.194;3.800;2023-08-20T05:39:19;19.50;99.90
22779;DHT22;11556;51.194;3.800;2023-08-20T05:41:45;19.70;99.90
22779;DHT22;11556;51.194;3.800;2023-08-20T05:44:10;19.80;99.90
22779;DHT22;11556;51.194;3.800;2023-08-20T05:46:36;19.90;99.90
22779;DHT22;11556;51.194;3.800;2023-08-20T05:49:02;20.30;99.90
22779;DHT22;11556;51.194;3.800;2023-08-20T05:51:27;21.30;99.90
22779;DHT22;11556;51.194;3.800;2023-08-20T05:53:53;22.90;99.90
22779;DHT22;11556;51.194;3.800;2023-08-20T05:56:19;24.70;99.90
22779;DHT22;11556;51.194;3.800;2023-08-20T05:58:44;26.10;99.90
22779;DHT22;11556;51.194;3.800;2023-08-20T06:01:10;27.30;99.90
22779;DHT22;11556;51.194;3.800;2023-08-20T06:03:36;28.10;99.90
22779;DHT22;11556;51.194;3.800;2023-08-20T06:06:01;29.00;99.90
22779;DHT22;11556;51.194;3.800;2023-08-20T06:08:27;29.80;99.90
22779;DHT22;11556;51.194;3.800;2023-08-20T06:10:53;30.50;97.80
22779;DHT22;11556;51.194;3.800;2023-08-20T06:13:19;31.10;94.90
22779;DHT22;11556;51.194;3.800;2023-08-20T06:15:44;31.60;93.30
22779;DHT22;11556;51.194;3.800;2023-08-20T06:18:10;32.00;91.30
22779;DHT22;11556;51.194;3.800;2023-08-20T06:20:35;32.30;89.30
22779;DHT22;11556;51.194;3.800;2023-08-20T06:23:01;32.50;86.50
22779;DHT22;11556;51.194;3.800;2023-08-20T06:25:27;32.90;84.60
22779;DHT22;11556;51.194;3.800;2023-08-20T06:27:53;33.20;81.60
22779;DHT22;11556;51.194;3.800;2023-08-20T06:30:18;33.60;80.30
22779;DHT22;11556;51.194;3.800;2023-08-20T06:32:44;33.80;79.00
22779;DHT22;11556;51.194;3.800;2023-08-20T06:35:10;34.10;76.00
22779;DHT22;11556;51.194;3.800;2023-08-20T06:37:38;34.70;73.30
22779;DHT22;11556;51.194;3.800;2023-08-20T06:40:05;34.90;70.10
22779;DHT22;11556;51.194;3.800;2023-08-20T06:42:30;34.60;69.10
22779;DHT22;11556;51.194;3.800;2023-08-20T06:44:56;34.30;69.30
22779;DHT22;11556;51.194;3.800;2023-08-20T06:47:22;34.20;68.80
22779;DHT22;11556;51.194;3.800;2023-08-20T06:49:47;34.10;67.40
22779;DHT22;11556;51.194;3.800;2023-08-20T06:52:13;34.00;69.10
22779;DHT22;11556;51.194;3.800;2023-08-20T06:54:38;33.90;67.50
22779;DHT22;11556;51.194;3.800;2023-08-20T06:57:04;34.00;68.40
22779;DHT22;11556;51.194;3.800;2023-08-20T06:59:30;34.00;69.80
22779;DHT22;11556;51.194;3.800;2023-08-20T07:01:56;33.90;67.80
22779;DHT22;11556;51.194;3.800;2023-08-20T07:04:21;33.30;67.70
22779;DHT22;11556;51.194;3.800;2023-08-20T07:06:47;32.40;70.40
22779;DHT22;11556;51.194;3.800;2023-08-20T07:09:13;31.40;74.40
22779;DHT22;11556;51.194;3.800;2023-08-20T07:11:38;30.30;77.90
22779;DHT22;11556;51.194;3.800;2023-08-20T07:14:04;29.60;82.30
22779;DHT22;11556;51.194;3.800;2023-08-20T07:16:31;29.30;84.50
22779;DHT22;11556;51.194;3.800;2023-08-20T07:18:57;29.10;86.40
22779;DHT22;11556;51.194;3.800;2023-08-20T07:21:22;29.10;89.30
22779;DHT22;11556;51.194;3.800;2023-08-20T07:23:48;29.30;86.40
22779;DHT22;11556;51.194;3.800;2023-08-20T07:26:14;29.40;86.90
22779;DHT22;11556;51.194;3.800;2023-08-20T07:28:41;29.80;84.90
22779;DHT22;11556;51.194;3.800;2023-08-20T07:31:25;30.20;83.60
22779;DHT22;11556;51.194;3.800;2023-08-20T07:33:51;31.20;80.50
22779;DHT22;11556;51.194;3.800;2023-08-20T07:36:17;32.30;76.40
22779;DHT22;11556;51.194;3.800;2023-08-20T07:38:43;33.70;72.50
22779;DHT22;11556;51.194;3.800;2023-08-20T07:41:10;34.80;69.10
22779;DHT22;11556;51.194;3.800;2023-08-20T07:43:37;35.40;66.90
22779;DHT22;11556;51.194;3.800;2023-08-20T07:46:03;36.20;64.30
22779;DHT22;11556;51.194;3.800;2023-08-20T07:48:29;36.60;59.90
22779;DHT22;11556;51.194;3.800;2023-08-20T07:50:55;37.00;58.80
22779;DHT22;11556;51.194;3.800;2023-08-20T07:53:21;37.50;56.10
22779;DHT22;11556;51.194;3.800;2023-08-20T07:55:46;37.60;54.20
22779;DHT22;11556;51.194;3.800;2023-08-20T07:58:12;37.60;55.20
22779;DHT22;11556;51.194;3.800;2023-08-20T08:00:38;38.10;53.60
22779;DHT22;11556;51.194;3.800;2023-08-20T08:03:04;38.30;51.60
22779;DHT22;11556;51.194;3.800;2023-08-20T08:05:29;38.40;51.20
22779;DHT22;11556;51.194;3.800;2023-08-20T08:07:55;38.40;51.50
22779;DHT22;11556;51.194;3.800;2023-08-20T08:10:21;38.30;52.40
22779;DHT22;11556;51.194;3.800;2023-08-20T08:12:47;38.40;50.60
22779;DHT22;11556;51.194;3.800;2023-08-20T08:15:12;38.50;50.20
22779;DHT22;11556;51.194;3.800;2023-08-20T08:17:39;39.10;49.20
22779;DHT22;11556;51.194;3.800;2023-08-20T08:20:05;39.10;47.90
22779;DHT22;11556;51.194;3.800;2023-08-20T08:22:31;39.50;47.90
22779;DHT22;11556;51.194;3.800;2023-08-20T08:24:57;39.70;48.00
22779;DHT22;11556;51.194;3.800;2023-08-20T08:27:23;39.80;47.40
22779;DHT22;11556;51.194;3.800;2023-08-20T08:29:48;40.10;45.60
22779;DHT22;11556;51.194;3.800;2023-08-20T08:32:14;40.40;44.80
22779;DHT22;11556;51.194;3.800;2023-08-20T08:34:40;40.30;44.70
22779;DHT22;11556;51.194;3.800;2023-08-20T08:37:05;40.60;45.00
22779;DHT22;11556;51.194;3.800;2023-08-20T08:39:32;40.30;45.00
22779;DHT22;11556;51.194;3.800;2023-08-20T08:42:04;40.30;44.90
22779;DHT22;11556;51.194;3.800;2023-08-20T08:44:34;40.10;44.50
22779;DHT22;11556;51.194;3.800;2023-08-20T08:47:02;40.30;44.10
22779;DHT22;11556;51.194;3.800;2023-08-20T08:49:28;40.30;44.20
22779;DHT22;11556;51.194;3.800;2023-08-20T08:51:58;40.00;44.40
22779;DHT22;11556;51.194;3.800;2023-08-20T08:54:26;39.80;43.10
22779;DHT22;11556;51.194;3.800;2023-08-20T08:56:52;39.90;43.30
22779;DHT22;11556;51.194;3.800;2023-08-20T08:59:18;40.30;44.10
22779;DHT22;11556;51.194;3.800;2023-08-20T09:01:44;40.30;44.30
22779;DHT22;11556;51.194;3.800;2023-08-20T09:04:09;40.40;41.90
22779;DHT22;11556;51.194;3.800;2023-08-20T09:06:46;40.10;43.60
22779;DHT22;11556;51.194;3.800;2023-08-20T09:09:12;40.00;41.60
22779;DHT22;11556;51.194;3.800;2023-08-20T09:11:38;40.10;43.50
22779;DHT22;11556;51.194;3.800;2023-08-20T09:14:04;40.20;42.60
22779;DHT22;11556;51.194;3.800;2023-08-20T09:16:30;40.00;42.00
22779;DHT22;11556;51.194;3.800;2023-08-20T09:18:59;39.80;42.70
22779;DHT22;11556;51.194;3.800;2023-08-20T09:21:28;39.20;42.40
22779;DHT22;11556;51.194;3.800;2023-08-20T09:23:56;39.10;43.70
22779;DHT22;11556;51.194;3.800;2023-08-20T09:26:22;39.20;43.80
22779;DHT22;11556;51.194;3.800;2023-08-20T09:28:48;39.20;44.20
22779;DHT22;11556;51.194;3.800;2023-08-20T09:31:15;39.50;45.00
22779;DHT22;11556;51.194;3.800;2023-08-20T09:33:50;39.80;44.50
22779;DHT22;11556;51.194;3.800;2023-08-20T09:36:17;39.50;43.90
22779;DHT22;11556;51.194;3.800;2023-08-20T09:38:43;39.70;44.90
22779;DHT22;11556;51.194;3.800;2023-08-20T09:41:09;39.40;43.20
22779;DHT22;11556;51.194;3.800;2023-08-20T09:43:38;39.30;43.70
22779;DHT22;11556;51.194;3.800;2023-08-20T09:46:05;39.50;42.70
22779;DHT22;11556;51.194;3.800;2023-08-20T09:48:34;39.50;41.90
22779;DHT22;11556;51.194;3.800;2023-08-20T09:51:04;39.80;43.80
22779;DHT22;11556;51.194;3.800;2023-08-20T09:53:48;39.90;40.60
22779;DHT22;11556;51.194;3.800;2023-08-20T09:56:37;39.80;41.00
22779;DHT22;11556;51.194;3.800;2023-08-20T09:59:04;39.90;42.60
22779;DHT22;11556;51.194;3.800;2023-08-20T10:01:30;40.30;41.50
22779;DHT22;11556;51.194;3.800;2023-08-20T10:03:56;40.50;43.20
22779;DHT22;11556;51.194;3.800;2023-08-20T10:06:23;41.10;41.60
22779;DHT22;11556;51.194;3.800;2023-08-20T10:08:50;41.10;40.20
22779;DHT22;11556;51.194;3.800;2023-08-20T10:11:16;40.70;39.70
22779;DHT22;11556;51.194;3.800;2023-08-20T10:13:42;41.10;39.70
22779;DHT22;11556;51.194;3.800;2023-08-20T10:16:11;41.60;38.90
22779;DHT22;11556;51.194;3.800;2023-08-20T10:18:37;41.20;38.90
22779;DHT22;11556;51.194;3.800;2023-08-20T10:21:04;41.10;40.20
22779;DHT22;11556;51.194;3.800;2023-08-20T10:23:32;39.60;39.50
22779;DHT22;11556;51.194;3.800;2023-08-20T10:26:07;37.70;43.30
22779;DHT22;11556;51.194;3.800;2023-08-20T10:28:34;37.50;44.10
22779;DHT22;11556;51.194;3.800;2023-08-20T10:33:50;39.20;41.40
22779;DHT22;11556;51.194;3.800;2023-08-20T10:36:20;40.10;41.20
22779;DHT22;11556;51.194;3.800;2023-08-20T10:38:55;40.30;39.50
22779;DHT22;11556;51.194;3.800;2023-08-20T10:41:28;40.00;40.00
22779;DHT22;11556;51.194;3.800;2023-08-20T10:43:58;39.60;41.00
22779;DHT22;11556;51.194;3.800;2023-08-20T10:46:25;39.60;41.50
22779;DHT22;11556;51.194;3.800;2023-08-20T10:48:55;39.10;41.80
22779;DHT22;11556;51.194;3.800;2023-08-20T10:51:34;37.20;44.30
22779;DHT22;11556;51.194;3.800;2023-08-20T10:56:41;37.80;43.00
22779;DHT22;11556;51.194;3.800;2023-08-20T11:01:51;37.50;43.60
22779;DHT22;11556;51.194;3.800;2023-08-20T11:04:19;38.00;43.80
22779;DHT22;11556;51.194;3.800;2023-08-20T11:06:46;38.70;43.20
22779;DHT22;11556;51.194;3.800;2023-08-20T11:09:12;39.50;41.90
22779;DHT22;11556;51.194;3.800;2023-08-20T11:11:39;38.80;41.20
22779;DHT22;11556;51.194;3.800;2023-08-20T11:14:13;38.20;43.70
22779;DHT22;11556;51.194;3.800;2023-08-20T11:16:40;38.50;42.80
22779;DHT22;11556;51.194;3.800;2023-08-20T11:19:05;39.10;42.40
22779;DHT22;11556;51.194;3.800;2023-08-20T11:21:35;39.20;41.60
22779;DHT22;11556;51.194;3.800;2023-08-20T11:24:01;39.00;42.10
22779;DHT22;11556;51.194;3.800;2023-08-20T11:26:27;38.20;42.80
22779;DHT22;11556;51.194;3.800;2023-08-20T11:28:52;36.80;44.40
22779;DHT22;11556;51.194;3.800;2023-08-20T11:31:19;36.50;45.60
22779;DHT22;11556;51.194;3.800;2023-08-20T11:33:45;37.10;44.70
22779;DHT22;11556;51.194;3.800;2023-08-20T11:36:11;38.00;44.30
22779;DHT22;11556;51.194;3.800;2023-08-20T11:38:37;38.50;42.50
22779;DHT22;11556;51.194;3.800;2023-08-20T11:41:03;38.80;42.10
22779;DHT22;11556;51.194;3.800;2023-08-20T11:43:29;37.40;43.40
22779;DHT22;11556;51.194;3.800;2023-08-20T11:45:55;36.30;46.60
22779;DHT22;11556;51.194;3.800;2023-08-20T11:48:22;36.10;46.40
22779;DHT22;11556;51.194;3.800;2023-08-20T11:50:48;36.80;45.00
22779;DHT22;11556;51.194;3.800;2023-08-20T11:53:15;36.10;45.00
22779;DHT22;11556;51.194;3.800;2023-08-20T11:55:41;36.70;45.60
22779;DHT22;11556;51.194;3.800;2023-08-20T11:58:13;36.20;46.90
22779;DHT22;11556;51.194;3.800;2023-08-20T12:00:40;36.80;45.40
22779;DHT22;11556;51.194;3.800;2023-08-20T12:03:07;38.30;44.50
22779;DHT22;11556;51.194;3.800;2023-08-20T12:05:33;39.50;43.00
22779;DHT22;11556;51.194;3.800;2023-08-20T12:08:03;39.00;41.50
22779;DHT22;11556;51.194;3.800;2023-08-20T12:10:31;39.90;40.80
22779;DHT22;11556;51.194;3.800;2023-08-20T12:12:57;40.80;41.00
22779;DHT22;11556;51.194;3.800;2023-08-20T12:15:24;41.60;39.70
22779;DHT22;11556;51.194;3.800;2023-08-20T12:18:01;40.30;39.70
22779;DHT22;11556;51.194;3.800;2023-08-20T12:20:28;40.30;40.20
22779;DHT22;11556;51.194;3.800;2023-08-20T12:22:54;40.90;40.10
22779;DHT22;11556;51.194;3.800;2023-08-20T12:25:20;41.10;38.70
22779;DHT22;11556;51.194;3.800;2023-08-20T12:27:46;40.50;39.50
22779;DHT22;11556;51.194;3.800;2023-08-20T12:30:12;40.20;39.70
22779;DHT22;11556;51.194;3.800;2023-08-20T12:32:37;39.70;41.40
22779;DHT22;11556;51.194;3.800;2023-08-20T12:35:03;38.90;41.40
22779;DHT22;11556;51.194;3.800;2023-08-20T12:37:29;37.30;44.10
22779;DHT22;11556;51.194;3.800;2023-08-20T12:39:55;36.80;44.80
22779;DHT22;11556;51.194;3.800;2023-08-20T12:42:20;36.40;45.20
22779;DHT22;11556;51.194;3.800;2023-08-20T12:44:46;37.10;44.40
22779;DHT22;11556;51.194;3.800;2023-08-20T12:47:11;37.00;44.60
22779;DHT22;11556;51.194;3.800;2023-08-20T12:49:37;36.60;46.60
22779;DHT22;11556;51.194;3.800;2023-08-20T12:52:03;35.40;49.80
22779;DHT22;11556;51.194;3.800;2023-08-20T12:54:29;35.30;50.60
22779;DHT22;11556;51.194;3.800;2023-08-20T12:56:54;34.80;51.40
22779;DHT22;11556;51.194;3.800;2023-08-20T12:59:20;34.20;54.20
22779;DHT22;11556;51.194;3.800;2023-08-20T13:01:46;34.80;54.00
22779;DHT22;11556;51.194;3.800;2023-08-20T13:04:12;35.70;52.50
22779;DHT22;11556;51.194;3.800;2023-08-20T13:06:39;37.00;50.70
22779;DHT22;11556;51.194;3.800;2023-08-20T13:09:05;37.50;48.00
22779;DHT22;11556;51.194;3.800;2023-08-20T13:11:32;37.50;48.80
22779;DHT22;11556;51.194;3.800;2023-08-20T13:13:58;36.90;48.80
22779;DHT22;11556;51.194;3.800;2023-08-20T13:16:24;36.00;50.70
22779;DHT22;11556;51.194;3.800;2023-08-20T13:18:50;35.60;52.10
22779;DHT22;11556;51.194;3.800;2023-08-20T13:21:16;34.90;54.20
22779;DHT22;11556;51.194;3.800;2023-08-20T13:23:41;34.30;55.10
22779;DHT22;11556;51.194;3.800;2023-08-20T13:26:07;33.80;55.90
22779;DHT22;11556;51.194;3.800;2023-08-20T13:28:33;33.60;57.70
22779;DHT22;11556;51.194;3.800;2023-08-20T13:30:58;33.50;57.00
22779;DHT22;11556;51.194;3.800;2023-08-20T13:33:24;33.90;57.00
22779;DHT22;11556;51.194;3.800;2023-08-20T13:35:50;34.70;55.90
22779;DHT22;11556;51.194;3.800;2023-08-20T13:38:17;35.60;53.50
22779;DHT22;11556;51.194;3.800;2023-08-20T13:40:44;36.00;52.90
22779;DHT22;11556;51.194;3.800;2023-08-20T13:43:10;35.80;52.90
22779;DHT22;11556;51.194;3.800;2023-08-20T13:45:35;35.30;54.20
22779;DHT22;11556;51.194;3.800;2023-08-20T13:48:01;35.10;55.30
22779;DHT22;11556;51.194;3.800;2023-08-20T13:50:29;34.90;56.00
22779;DHT22;11556;51.194;3.800;2023-08-20T13:52:54;34.60;55.90
22779;DHT22;11556;51.194;3.800;2023-08-20T13:55:20;34.10;58.00
22779;DHT22;11556;51.194;3.800;2023-08-20T13:57:46;33.70;57.20
22779;DHT22;11556;51.194;3.800;2023-08-20T14:00:12;33.70;57.00
22779;DHT22;11556;51.194;3.800;2023-08-20T14:02:39;34.20;56.60
22779;DHT22;11556;51.194;3.800;2023-08-20T14:05:05;34.40;55.30
22779;DHT22;11556;51.194;3.800;2023-08-20T14:07:31;34.70;56.80
22779;DHT22;11556;51.194;3.800;2023-08-20T14:10:03;35.70;55.10
22779;DHT22;11556;51.194;3.800;2023-08-20T14:12:32;36.20;52.80
22779;DHT22;11556;51.194;3.800;2023-08-20T14:14:58;35.70;52.80
22779;DHT22;11556;51.194;3.800;2023-08-20T14:17:23;35.70;53.60
22779;DHT22;11556;51.194;3.800;2023-08-20T14:19:49;35.00;53.80
22779;DHT22;11556;51.194;3.800;2023-08-20T14:22:15;34.40;54.30
22779;DHT22;11556;51.194;3.800;2023-08-20T14:24:40;34.00;56.10
22779;DHT22;11556;51.194;3.800;2023-08-20T14:27:06;34.30;55.30
22779;DHT22;11556;51.194;3.800;2023-08-20T14:29:33;34.80;54.70
22779;DHT22;11556;51.194;3.800;2023-08-20T14:31:58;34.70;54.60
22779;DHT22;11556;51.194;3.800;2023-08-20T14:34:24;34.70;54.50
22779;DHT22;11556;51.194;3.800;2023-08-20T14:36:50;35.00;54.80
22779;DHT22;11556;51.194;3.800;2023-08-20T14:39:16;35.40;54.30
22779;DHT22;11556;51.194;3.800;2023-08-20T14:41:41;35.90;53.60
22779;DHT22;11556;51.194;3.800;2023-08-20T14:44:07;36.30;51.00
22779;DHT22;11556;51.194;3.800;2023-08-20T14:46:33;36.10;51.40
22779;DHT22;11556;51.194;3.800;2023-08-20T14:48:58;36.20;50.80
22779;DHT22;11556;51.194;3.800;2023-08-20T14:51:24;35.90;50.90
22779;DHT22;11556;51.194;3.800;2023-08-20T14:53:50;35.70;54.20
22779;DHT22;11556;51.194;3.800;2023-08-20T14:56:15;35.50;51.10
22779;DHT22;11556;51.194;3.800;2023-08-20T14:58:41;35.10;51.70
22779;DHT22;11556;51.194;3.800;2023-08-20T15:01:07;34.90;52.30
22779;DHT22;11556;51.194;3.800;2023-08-20T15:03:33;35.10;52.20
22779;DHT22;11556;51.194;3.800;2023-08-20T15:05:59;35.10;52.00
22779;DHT22;11556;51.194;3.800;2023-08-20T15:08:25;35.20;52.30
22779;DHT22;11556;51.194;3.800;2023-08-20T15:11:01;35.40;53.20
22779;DHT22;11556;51.194;3.800;2023-08-20T15:13:31;35.40;50.90
22779;DHT22;11556;51.194;3.800;2023-08-20T15:15:57;35.40;51.00
22779;DHT22;11556;51.194;3.800;2023-08-20T15:18:23;34.70;52.10
22779;DHT22;11556;51.194;3.800;2023-08-20T15:20:59;33.00;53.90
22779;DHT22;11556;51.194;3.800;2023-08-20T15:23:26;32.50;55.40
22779;DHT22;11556;51.194;3.800;2023-08-20T15:25:53;32.70;54.00
22779;DHT22;11556;51.194;3.800;2023-08-20T15:28:23;33.20;54.00
22779;DHT22;11556;51.194;3.800;2023-08-20T15:30:51;33.20;52.20
22779;DHT22;11556;51.194;3.800;2023-08-20T15:33:17;33.10;53.40
22779;DHT22;11556;51.194;3.800;2023-08-20T15:35:43;32.80;53.70
22779;DHT22;11556;51.194;3.800;2023-08-20T15:38:09;32.40;53.60
22779;DHT22;11556;51.194;3.800;2023-08-20T15:40:37;31.80;53.90
22779;DHT22;11556;51.194;3.800;2023-08-20T15:43:03;31.80;55.40